sensor_id;sensor_type;location;lat;lon;timestamp;temperature;humidity
9849;DHT22;4963;51.444;6.528;2023-08-30T00:00:25;17.30;99.90
9849;DHT22;4963;51.444;6.528;2023-08-30T00:02:53;17.30;99.90
9849;DHT22;4963;51.444;6.528;2023-08-30T00:05:20;17.20;99.90
9849;DHT22;4963;51.444;6.528;2023-08-30T00:07:47;17.20;99.90
9849;DHT22;4963;51.444;6.528;2023-08-30T00:10:14;17.20;99.90
9849;DHT22;4963;51.444;6.528;2023-08-30T00:12:41;17.20;99.90
9849;DHT22;4963;51.444;6.528;2023-08-30T00:15:08;17.20;99.90
9849;DHT22;4963;51.444;6.528;2023-08-30T00:17:35;17.10;99.90
9849;DHT22;4963;51.444;6.528;2023-08-30T00:20:04;17.10;99.90
9849;DHT22;4963;51.444;6.528;2023-08-30T00:22:32;17.00;99.90
9849;DHT22;4963;51.444;6.528;2023-08-30T00:24:59;17.10;99.90
9849;DHT22;4963;51.444;6.528;2023-08-30T00:27:26;17.00;99.90
9849;DHT22;4963;51.444;6.528;2023-08-30T00:29:53;17.00;99.90
9849;DHT22;4963;51.444;6.528;2023-08-30T00:32:20;17.00;99.90
9849;DHT22;4963;51.444;6.528;2023-08-30T00:34:49;17.00;99.90
9849;DHT22;4963;51.444;6.528;2023-08-30T00:37:18;17.00;99.90
9849;DHT22;4963;51.444;6.528;2023-08-30T00:39:44;17.00;99.90
9849;DHT22;4963;51.444;6.528;2023-08-30T00:42:11;17.00;99.90
9849;DHT22;4963;51.444;6.528;2023-08-30T00:44:38;16.90;99.90
9849;DHT22;4963;51.444;6.528;2023-08-30T00:47:06;16.70;99.90
9849;DHT22;4963;51.444;6.528;2023-08-30T00:49:33;16.70;99.90
9849;DHT22;4963;51.444;6.528;2023-08-30T00:52:02;16.60;99.90
9849;DHT22;4963;51.444;6.528;2023-08-30T00:54:32;16.60;99.90
9849;DHT22;4963;51.444;6.528;2023-08-30T00:57:00;16.70;99.90
9849;DHT22;4963;51.444;6.528;2023-08-30T00:59:28;16.60;99.90
9849;DHT22;4963;51.444;6.528;2023-08-30T01:01:56;16.60;99.90
9849;DHT22;4963;51.444;6.528;2023-08-30T01:04:24;16.50;99.90
9849;DHT22;4963;51.444;6.528;2023-08-30T01:06:51;16.60;99.90
9849;DHT22;4963;51.444;6.528;2023-08-30T01:09:18;16.60;99.90
9849;DHT22;4963;51.444;6.528;2023-08-30T01:11:54;16.50;99.90
9849;DHT22;4963;51.444;6.528;2023-08-30T01:14:28;16.50;99.90
9849;DHT22;4963;51.444;6.528;2023-08-30T01:16:56;16.50;99.90
9849;DHT22;4963;51.444;6.528;2023-08-30T01:19:36;16.50;99.90
9849;DHT22;4963;51.444;6.528;2023-08-30T01:22:11;16.40;99.90
9849;DHT22;4963;51.444;6.528;2023-08-30T01:24:44;16.40;99.90
9849;DHT22;4963;51.444;6.528;2023-08-30T01:27:14;16.30;99.90
9849;DHT22;4963;51.444;6.528;2023-08-30T01:29:44;16.30;99.90
9849;DHT22;4963;51.444;6.528;2023-08-30T01:32:11;16.30;99.90
9849;DHT22;4963;51.444;6.528;2023-08-30T01:34:39;16.20;99.90
9849;DHT22;4963;51.444;6.528;2023-08-30T01:37:07;16.20;99.90
9849;DHT22;4963;51.444;6.528;2023-08-30T01:39:34;16.20;99.90
9849;DHT22;4963;51.444;6.528;2023-08-30T01:42:03;16.20;99.90
9849;DHT22;4963;51.444;6.528;2023-08-30T01:44:32;16.20;99.90
9849;DHT22;4963;51.444;6.528;2023-08-30T01:47:00;16.20;99.90
9849;DHT22;4963;51.444;6.528;2023-08-30T01:49:29;16.30;99.90
9849;DHT22;4963;51.444;6.528;2023-08-30T01:51:59;16.30;99.90
9849;DHT22;4963;51.444;6.528;2023-08-30T01:54:27;16.30;99.90
9849;DHT22;4963;51.444;6.528;2023-08-30T01:56:55;16.30;99.90
9849;DHT22;4963;51.444;6.528;2023-08-30T01:59:23;16.20;99.90
9849;DHT22;4963;51.444;6.528;2023-08-30T02:01:52;16.20;99.90
9849;DHT22;4963;51.444;6.528;2023-08-30T02:04:19;16.20;99.90
9849;DHT22;4963;51.444;6.528;2023-08-30T02:06:50;16.30;99.90
9849;DHT22;4963;51.444;6.528;2023-08-30T02:09:23;16.30;99.90
9849;DHT22;4963;51.444;6.528;2023-08-30T02:11:51;16.30;99.90
9849;DHT22;4963;51.444;6.528;2023-08-30T02:14:20;16.30;99.90
9849;DHT22;4963;51.444;6.528;2023-08-30T02:16:49;16.20;99.90
9849;DHT22;4963;51.444;6.528;2023-08-30T02:19:18;16.20;99.90
9849;DHT22;4963;51.444;6.528;2023-08-30T02:21:46;16.20;99.90
9849;DHT22;4963;51.444;6.528;2023-08-30T02:24:14;16.20;99.90
9849;DHT22;4963;51.444;6.528;2023-08-30T02:26:41;16.10;99.90
9849;DHT22;4963;51.444;6.528;2023-08-30T02:29:07;16.10;99.90
9849;DHT22;4963;51.444;6.528;2023-08-30T02:31:35;16.20;99.90
9849;DHT22;4963;51.444;6.528;2023-08-30T02:34:02;16.10;99.90
9849;DHT22;4963;51.444;6.528;2023-08-30T02:36:30;16.10;99.90
9849;DHT22;4963;51.444;6.528;2023-08-30T02:38:57;16.10;99.90
9849;DHT22;4963;51.444;6.528;2023-08-30T02:41:24;16.00;99.90
9849;DHT22;4963;51.444;6.528;2023-08-30T02:43:50;16.00;99.90
9849;DHT22;4963;51.444;6.528;2023-08-30T02:46:17;15.90;99.90
9849;DHT22;4963;51.444;6.528;2023-08-30T02:48:44;16.00;99.90
9849;DHT22;4963;51.444;6.528;2023-08-30T02:51:11;16.00;99.90
9849;DHT22;4963;51.444;6.528;2023-08-30T02:53:39;16.00;99.90
9849;DHT22;4963;51.444;6.528;2023-08-30T02:56:06;15.90;99.90
9849;DHT22;4963;51.444;6.528;2023-08-30T02:58:33;15.80;99.90
9849;DHT22;4963;51.444;6.528;2023-08-30T03:01:00;15.80;99.90
9849;DHT22;4963;51.444;6.528;2023-08-30T03:03:28;15.80;99.90
9849;DHT22;4963;51.444;6.528;2023-08-30T03:05:55;15.80;99.90
9849;DHT22;4963;51.444;6.528;2023-08-30T03:08:21;15.80;99.90
9849;DHT22;4963;51.444;6.528;2023-08-30T03:10:50;15.90;99.90
9849;DHT22;4963;51.444;6.528;2023-08-30T03:13:16;15.90;99.90
9849;DHT22;4963;51.444;6.528;2023-08-30T03:15:43;16.00;99.90
9849;DHT22;4963;51.444;6.528;2023-08-30T03:18:10;16.00;99.90
9849;DHT22;4963;51.444;6.528;2023-08-30T03:20:37;16.00;99.90
9849;DHT22;4963;51.444;6.528;2023-08-30T03:23:04;16.00;99.90
9849;DHT22;4963;51.444;6.528;2023-08-30T03:25:30;15.90;99.90
9849;DHT22;4963;51.444;6.528;2023-08-30T03:27:59;15.90;99.90
9849;DHT22;4963;51.444;6.528;2023-08-30T03:30:25;15.90;99.90
9849;DHT22;4963;51.444;6.528;2023-08-30T03:32:52;15.90;99.90
9849;DHT22;4963;51.444;6.528;2023-08-30T03:35:19;15.90;99.90
9849;DHT22;4963;51.444;6.528;2023-08-30T03:37:47;15.90;99.90
9849;DHT22;4963;51.444;6.528;2023-08-30T03:40:14;15.80;99.90
9849;DHT22;4963;51.444;6.528;2023-08-30T03:42:40;15.80;99.90
9849;DHT22;4963;51.444;6.528;2023-08-30T03:45:09;15.80;99.90
9849;DHT22;4963;51.444;6.528;2023-08-30T03:47:36;15.80;99.90
9849;DHT22;4963;51.444;6.528;2023-08-30T03:50:04;15.70;99.90
9849;DHT22;4963;51.444;6.528;2023-08-30T03:52:31;15.70;99.90
9849;DHT22;4963;51.444;6.528;2023-08-30T03:54:58;15.60;99.90
9849;DHT22;4963;51.444;6.528;2023-08-30T03:57:25;15.60;99.90
9849;DHT22;4963;51.444;6.528;2023-08-30T03:59:52;15.60;99.90
9849;DHT22;4963;51.444;6.528;2023-08-30T04:02:21;15.60;99.90
9849;DHT22;4963;51.444;6.528;2023-08-30T04:04:49;15.60;99.90
9849;DHT22;4963;51.444;6.528;2023-08-30T04:07:16;15.60;99.90
9849;DHT22;4963;51.444;6.528;2023-08-30T04:09:42;15.60;99.90
9849;DHT22;4963;51.444;6.528;2023-08-30T04:12:09;15.60;99.90
9849;DHT22;4963;51.444;6.528;2023-08-30T04:14:37;15.60;99.90
9849;DHT22;4963;51.444;6.528;2023-08-30T04:17:04;15.70;99.90
9849;DHT22;4963;51.444;6.528;2023-08-30T04:19:32;15.60;99.90
9849;DHT22;4963;51.444;6.528;2023-08-30T04:21:59;15.60;99.90
9849;DHT22;4963;51.444;6.528;2023-08-30T04:24:26;15.60;99.90
9849;DHT22;4963;51.444;6.528;2023-08-30T04:26:53;15.50;99.90
9849;DHT22;4963;51.444;6.528;2023-08-30T04:29:20;15.50;99.90
9849;DHT22;4963;51.444;6.528;2023-08-30T04:31:47;15.50;99.90
9849;DHT22;4963;51.444;6.528;2023-08-30T04:34:14;15.40;99.90
9849;DHT22;4963;51.444;6.528;2023-08-30T04:36:43;15.50;99.90
9849;DHT22;4963;51.444;6.528;2023-08-30T04:39:10;15.50;99.90
9849;DHT22;4963;51.444;6.528;2023-08-30T04:41:37;15.50;99.90
9849;DHT22;4963;51.444;6.528;2023-08-30T04:44:04;15.50;99.90
9849;DHT22;4963;51.444;6.528;2023-08-30T04:46:31;15.50;99.90
9849;DHT22;4963;51.444;6.528;2023-08-30T04:48:58;15.50;99.90
9849;DHT22;4963;51.444;6.528;2023-08-30T04:51:24;15.60;99.90
9849;DHT22;4963;51.444;6.528;2023-08-30T04:53:53;15.60;99.90
9849;DHT22;4963;51.444;6.528;2023-08-30T04:56:22;15.60;99.90
9849;DHT22;4963;51.444;6.528;2023-08-30T04:58:49;15.60;99.90
9849;DHT22;4963;51.444;6.528;2023-08-30T05:01:16;15.50;99.90
9849;DHT22;4963;51.444;6.528;2023-08-30T05:03:43;15.60;99.90
9849;DHT22;4963;51.444;6.528;2023-08-30T05:06:10;15.60;99.90
9849;DHT22;4963;51.444;6.528;2023-08-30T05:08:39;15.60;99.90
9849;DHT22;4963;51.444;6.528;2023-08-30T05:11:07;15.60;99.90
9849;DHT22;4963;51.444;6.528;2023-08-30T05:13:34;15.50;99.90
9849;DHT22;4963;51.444;6.528;2023-08-30T05:16:01;15.60;99.90
9849;DHT22;4963;51.444;6.528;2023-08-30T05:18:28;15.50;99.90
9849;DHT22;4963;51.444;6.528;2023-08-30T05:20:55;15.40;99.90
9849;DHT22;4963;51.444;6.528;2023-08-30T05:23:22;15.40;99.90
9849;DHT22;4963;51.444;6.528;2023-08-30T05:25:49;15.50;99.90
9849;DHT22;4963;51.444;6.528;2023-08-30T05:28:17;15.50;99.90
9849;DHT22;4963;51.444;6.528;2023-08-30T05:30:44;15.50;99.90
9849;DHT22;4963;51.444;6.528;2023-08-30T05:33:11;15.70;99.90
9849;DHT22;4963;51.444;6.528;2023-08-30T05:35:38;15.70;99.90
9849;DHT22;4963;51.444;6.528;2023-08-30T05:38:05;15.80;99.90
9849;DHT22;4963;51.444;6.528;2023-08-30T05:40:32;15.80;99.90
9849;DHT22;4963;51.444;6.528;2023-08-30T05:42:58;15.70;99.90
9849;DHT22;4963;51.444;6.528;2023-08-30T05:45:27;15.70;99.90
9849;DHT22;4963;51.444;6.528;2023-08-30T05:47:53;15.70;99.90
9849;DHT22;4963;51.444;6.528;2023-08-30T05:50:20;15.70;99.90
9849;DHT22;4963;51.444;6.528;2023-08-30T05:52:47;15.80;99.90
9849;DHT22;4963;51.444;6.528;2023-08-30T05:55:14;15.80;99.90
9849;DHT22;4963;51.444;6.528;2023-08-30T05:57:41;15.70;99.90
9849;DHT22;4963;51.444;6.528;2023-08-30T06:00:09;15.70;99.90
9849;DHT22;4963;51.444;6.528;2023-08-30T06:02:37;15.60;99.90
9849;DHT22;4963;51.444;6.528;2023-08-30T06:05:04;15.60;99.90
9849;DHT22;4963;51.444;6.528;2023-08-30T06:07:31;15.70;99.90
9849;DHT22;4963;51.444;6.528;2023-08-30T06:09:58;15.80;99.90
9849;DHT22;4963;51.444;6.528;2023-08-30T06:12:25;15.80;99.90
9849;DHT22;4963;51.444;6.528;2023-08-30T06:14:52;15.80;99.90
9849;DHT22;4963;51.444;6.528;2023-08-30T06:17:19;15.90;99.90
9849;DHT22;4963;51.444;6.528;2023-08-30T06:19:48;15.90;99.90
9849;DHT22;4963;51.444;6.528;2023-08-30T06:22:15;15.90;99.90
9849;DHT22;4963;51.444;6.528;2023-08-30T06:24:41;15.90;99.90
9849;DHT22;4963;51.444;6.528;2023-08-30T06:27:08;16.00;99.90
9849;DHT22;4963;51.444;6.528;2023-08-30T06:29:35;16.10;99.90
9849;DHT22;4963;51.444;6.528;2023-08-30T06:32:02;16.20;99.90
9849;DHT22;4963;51.444;6.528;2023-08-30T06:34:29;16.20;99.90
9849;DHT22;4963;51.444;6.528;2023-08-30T06:36:57;16.30;99.90
9849;DHT22;4963;51.444;6.528;2023-08-30T06:39:24;16.30;99.90
9849;DHT22;4963;51.444;6.528;2023-08-30T06:41:51;16.30;99.90
9849;DHT22;4963;51.444;6.528;2023-08-30T06:44:18;16.30;99.90
9849;DHT22;4963;51.444;6.528;2023-08-30T06:46:45;16.40;99.90
9849;DHT22;4963;51.444;6.528;2023-08-30T06:49:12;16.50;99.90
9849;DHT22;4963;51.444;6.528;2023-08-30T06:51:39;16.60;99.90
9849;DHT22;4963;51.444;6.528;2023-08-30T06:54:07;16.70;99.90
9849;DHT22;4963;51.444;6.528;2023-08-30T06:56:34;16.90;99.90
9849;DHT22;4963;51.444;6.528;2023-08-30T06:59:01;17.00;99.90
9849;DHT22;4963;51.444;6.528;2023-08-30T07:01:28;17.10;99.90
9849;DHT22;4963;51.444;6.528;2023-08-30T07:03:55;17.30;99.90
9849;DHT22;4963;51.444;6.528;2023-08-30T07:06:22;17.30;99.90
9849;DHT22;4963;51.444;6.528;2023-08-30T07:08:49;17.50;99.90
9849;DHT22;4963;51.444;6.528;2023-08-30T07:11:17;17.70;99.90
9849;DHT22;4963;51.444;6.528;2023-08-30T07:13:44;17.90;99.90
9849;DHT22;4963;51.444;6.528;2023-08-30T07:16:11;18.00;99.90
9849;DHT22;4963;51.444;6.528;2023-08-30T07:18:38;18.30;99.90
9849;DHT22;4963;51.444;6.528;2023-08-30T07:21:05;18.70;99.90
9849;DHT22;4963;51.444;6.528;2023-08-30T07:23:32;19.10;99.90
9849;DHT22;4963;51.444;6.528;2023-08-30T07:25:59;19.50;99.90
9849;DHT22;4963;51.444;6.528;2023-08-30T07:28:27;19.70;99.90
9849;DHT22;4963;51.444;6.528;2023-08-30T07:31:02;19.80;99.90
9849;DHT22;4963;51.444;6.528;2023-08-30T07:33:29;20.00;99.90
9849;DHT22;4963;51.444;6.528;2023-08-30T07:36:08;19.90;99.90
9849;DHT22;4963;51.444;6.528;2023-08-30T07:38:50;19.90;99.90
9849;DHT22;4963;51.444;6.528;2023-08-30T07:41:17;19.70;99.90
9849;DHT22;4963;51.444;6.528;2023-08-30T07:43:46;19.60;99.90
9849;DHT22;4963;51.444;6.528;2023-08-30T07:46:13;19.50;99.90
9849;DHT22;4963;51.444;6.528;2023-08-30T07:48:40;19.40;99.90
9849;DHT22;4963;51.444;6.528;2023-08-30T07:51:07;19.30;99.90
9849;DHT22;4963;51.444;6.528;2023-08-30T07:53:34;19.10;99.90
9849;DHT22;4963;51.444;6.528;2023-08-30T07:56:01;19.00;99.90
9849;DHT22;4963;51.444;6.528;2023-08-30T07:58:28;18.90;99.90
9849;DHT22;4963;51.444;6.528;2023-08-30T08:00:56;19.00;99.90
9849;DHT22;4963;51.444;6.528;2023-08-30T08:03:23;19.00;99.90
9849;DHT22;4963;51.444;6.528;2023-08-30T08:05:50;18.90;99.90
9849;DHT22;4963;51.444;6.528;2023-08-30T08:08:17;18.80;99.90
9849;DHT22;4963;51.444;6.528;2023-08-30T08:10:44;18.90;99.90
9849;DHT22;4963;51.444;6.528;2023-08-30T08:13:11;19.00;99.90
9849;DHT22;4963;51.444;6.528;2023-08-30T08:15:39;19.00;99.90
9849;DHT22;4963;51.444;6.528;2023-08-30T08:18:07;19.00;99.90
9849;DHT22;4963;51.444;6.528;2023-08-30T08:20:34;19.00;99.90
9849;DHT22;4963;51.444;6.528;2023-08-30T08:23:02;19.10;99.90
9849;DHT22;4963;51.444;6.528;2023-08-30T08:25:29;19.10;99.90
9849;DHT22;4963;51.444;6.528;2023-08-30T08:27:56;19.20;99.90
9849;DHT22;4963;51.444;6.528;2023-08-30T08:30:22;19.00;99.90
9849;DHT22;4963;51.444;6.528;2023-08-30T08:32:49;19.00;99.90
9849;DHT22;4963;51.444;6.528;2023-08-30T08:35:18;18.80;99.90
9849;DHT22;4963;51.444;6.528;2023-08-30T08:37:44;18.80;99.90
9849;DHT22;4963;51.444;6.528;2023-08-30T08:40:11;18.70;99.90
9849;DHT22;4963;51.444;6.528;2023-08-30T08:42:38;18.60;99.90
9849;DHT22;4963;51.444;6.528;2023-08-30T08:45:07;18.50;99.90
9849;DHT22;4963;51.444;6.528;2023-08-30T08:47:36;18.50;99.90
9849;DHT22;4963;51.444;6.528;2023-08-30T08:50:04;18.40;99.90
9849;DHT22;4963;51.444;6.528;2023-08-30T08:52:33;18.40;99.90
9849;DHT22;4963;51.444;6.528;2023-08-30T08:55:00;18.30;99.90
9849;DHT22;4963;51.444;6.528;2023-08-30T08:57:28;18.20;99.90
9849;DHT22;4963;51.444;6.528;2023-08-30T08:59:57;18.20;99.90
9849;DHT22;4963;51.444;6.528;2023-08-30T09:02:24;18.10;99.90
9849;DHT22;4963;51.444;6.528;2023-08-30T09:04:52;18.10;99.90
9849;DHT22;4963;51.444;6.528;2023-08-30T09:07:19;18.00;99.90
9849;DHT22;4963;51.444;6.528;2023-08-30T09:09:48;17.90;99.90
9849;DHT22;4963;51.444;6.528;2023-08-30T09:12:15;17.80;99.90
9849;DHT22;4963;51.444;6.528;2023-08-30T09:14:52;17.60;99.90
9849;DHT22;4963;51.444;6.528;2023-08-30T09:17:19;17.40;99.90
9849;DHT22;4963;51.444;6.528;2023-08-30T09:19:46;17.30;99.90
9849;DHT22;4963;51.444;6.528;2023-08-30T09:22:12;17.10;99.90
9849;DHT22;4963;51.444;6.528;2023-08-30T09:24:40;17.10;99.90
9849;DHT22;4963;51.444;6.528;2023-08-30T09:27:08;17.10;99.90
9849;DHT22;4963;51.444;6.528;2023-08-30T09:29:35;17.00;99.90
9849;DHT22;4963;51.444;6.528;2023-08-30T09:32:02;17.00;99.90
9849;DHT22;4963;51.444;6.528;2023-08-30T09:34:29;16.90;99.90
9849;DHT22;4963;51.444;6.528;2023-08-30T09:36:56;16.90;99.90
9849;DHT22;4963;51.444;6.528;2023-08-30T09:39:24;16.90;99.90
9849;DHT22;4963;51.444;6.528;2023-08-30T09:41:54;16.80;99.90
9849;DHT22;4963;51.444;6.528;2023-08-30T09:44:22;16.90;99.90
9849;DHT22;4963;51.444;6.528;2023-08-30T09:46:51;17.00;99.90
9849;DHT22;4963;51.444;6.528;2023-08-30T09:49:19;16.90;99.90
9849;DHT22;4963;51.444;6.528;2023-08-30T09:51:47;17.00;99.90
9849;DHT22;4963;51.444;6.528;2023-08-30T09:54:16;16.90;99.90
9849;DHT22;4963;51.444;6.528;2023-08-30T09:56:43;16.80;99.90
9849;DHT22;4963;51.444;6.528;2023-08-30T09:59:12;16.90;99.90
9849;DHT22;4963;51.444;6.528;2023-08-30T10:01:42;17.00;99.90
9849;DHT22;4963;51.444;6.528;2023-08-30T10:04:09;17.00;99.90
9849;DHT22;4963;51.444;6.528;2023-08-30T10:06:37;16.90;99.90
9849;DHT22;4963;51.444;6.528;2023-08-30T10:09:05;16.80;99.90
9849;DHT22;4963;51.444;6.528;2023-08-30T10:11:34;17.00;99.90
9849;DHT22;4963;51.444;6.528;2023-08-30T10:14:02;17.00;99.90
9849;DHT22;4963;51.444;6.528;2023-08-30T10:16:35;17.00;99.90
9849;DHT22;4963;51.444;6.528;2023-08-30T10:19:08;16.90;99.90
9849;DHT22;4963;51.444;6.528;2023-08-30T10:21:36;16.80;99.90
9849;DHT22;4963;51.444;6.528;2023-08-30T10:24:05;16.70;99.90
9849;DHT22;4963;51.444;6.528;2023-08-30T10:26:33;16.70;99.90
9849;DHT22;4963;51.444;6.528;2023-08-30T10:29:01;16.60;99.90
9849;DHT22;4963;51.444;6.528;2023-08-30T10:31:29;16.50;99.90
9849;DHT22;4963;51.444;6.528;2023-08-30T10:33:56;16.50;99.90
9849;DHT22;4963;51.444;6.528;2023-08-30T10:36:25;16.40;99.90
9849;DHT22;4963;51.444;6.528;2023-08-30T10:38:53;16.40;99.90
9849;DHT22;4963;51.444;6.528;2023-08-30T10:41:24;16.40;99.90
9849;DHT22;4963;51.444;6.528;2023-08-30T10:43:52;16.50;99.90
9849;DHT22;4963;51.444;6.528;2023-08-30T10:46:29;16.50;99.90
9849;DHT22;4963;51.444;6.528;2023-08-30T10:49:07;16.50;99.90
9849;DHT22;4963;51.444;6.528;2023-08-30T10:51:37;16.50;99.90
9849;DHT22;4963;51.444;6.528;2023-08-30T10:54:12;16.60;99.90
9849;DHT22;4963;51.444;6.528;2023-08-30T10:56:46;16.50;99.90
9849;DHT22;4963;51.444;6.528;2023-08-30T10:59:17;16.50;99.90
9849;DHT22;4963;51.444;6.528;2023-08-30T11:01:46;16.50;99.90
9849;DHT22;4963;51.444;6.528;2023-08-30T11:04:15;16.60;99.90
9849;DHT22;4963;51.444;6.528;2023-08-30T11:06:44;16.50;99.90
9849;DHT22;4963;51.444;6.528;2023-08-30T11:09:16;16.60;99.90
9849;DHT22;4963;51.444;6.528;2023-08-30T11:11:44;16.60;99.90
9849;DHT22;4963;51.444;6.528;2023-08-30T11:14:12;16.50;99.90
9849;DHT22;4963;51.444;6.528;2023-08-30T11:16:39;16.40;99.90
9849;DHT22;4963;51.444;6.528;2023-08-30T11:19:07;16.40;99.90
9849;DHT22;4963;51.444;6.528;2023-08-30T11:21:35;16.50;99.90
9849;DHT22;4963;51.444;6.528;2023-08-30T11:24:05;16.50;99.90
9849;DHT22;4963;51.444;6.528;2023-08-30T11:26:32;16.50;99.90
9849;DHT22;4963;51.444;6.528;2023-08-30T11:29:04;16.50;99.90
9849;DHT22;4963;51.444;6.528;2023-08-30T11:31:31;16.60;99.90
9849;DHT22;4963;51.444;6.528;2023-08-30T11:33:59;16.60;99.90
9849;DHT22;4963;51.444;6.528;2023-08-30T11:36:27;16.60;99.90
9849;DHT22;4963;51.444;6.528;2023-08-30T11:38:54;16.60;99.90
9849;DHT22;4963;51.444;6.528;2023-08-30T11:41:23;16.60;99.90
9849;DHT22;4963;51.444;6.528;2023-08-30T11:43:50;16.60;99.90
9849;DHT22;4963;51.444;6.528;2023-08-30T11:46:17;16.70;99.90
9849;DHT22;4963;51.444;6.528;2023-08-30T11:48:46;16.70;99.90
9849;DHT22;4963;51.444;6.528;2023-08-30T11:51:14;16.80;99.90
9849;DHT22;4963;51.444;6.528;2023-08-30T11:53:41;16.80;99.90
9849;DHT22;4963;51.444;6.528;2023-08-30T11:56:08;16.80;99.90
9849;DHT22;4963;51.444;6.528;2023-08-30T11:58:37;16.80;99.90
9849;DHT22;4963;51.444;6.528;2023-08-30T12:01:04;16.90;99.90
9849;DHT22;4963;51.444;6.528;2023-08-30T12:03:32;16.90;99.90
9849;DHT22;4963;51.444;6.528;2023-08-30T12:05:59;17.00;99.90
9849;DHT22;4963;51.444;6.528;2023-08-30T12:08:28;17.10;99.90
9849;DHT22;4963;51.444;6.528;2023-08-30T12:10:56;17.10;99.90
9849;DHT22;4963;51.444;6.528;2023-08-30T12:13:23;17.00;99.90
9849;DHT22;4963;51.444;6.528;2023-08-30T12:15:52;17.00;99.90
9849;DHT22;4963;51.444;6.528;2023-08-30T12:18:21;16.90;99.90
9849;DHT22;4963;51.444;6.528;2023-08-30T12:20:53;16.90;99.90
9849;DHT22;4963;51.444;6.528;2023-08-30T12:23:21;16.80;99.90
9849;DHT22;4963;51.444;6.528;2023-08-30T12:25:58;16.80;99.90
9849;DHT22;4963;51.444;6.528;2023-08-30T12:28:26;16.70;99.90
9849;DHT22;4963;51.444;6.528;2023-08-30T12:30:55;16.70;99.90
9849;DHT22;4963;51.444;6.528;2023-08-30T12:33:22;16.70;99.90
9849;DHT22;4963;51.444;6.528;2023-08-30T12:35:51;16.70;99.90
9849;DHT22;4963;51.444;6.528;2023-08-30T12:38:18;16.70;99.90
9849;DHT22;4963;51.444;6.528;2023-08-30T12:40:45;16.70;99.90
9849;DHT22;4963;51.444;6.528;2023-08-30T12:43:12;16.70;99.90
9849;DHT22;4963;51.444;6.528;2023-08-30T12:45:40;16.70;99.90
9849;DHT22;4963;51.444;6.528;2023-08-30T12:48:09;16.70;99.90
9849;DHT22;4963;51.444;6.528;2023-08-30T12:50:37;16.70;99.90
9849;DHT22;4963;51.444;6.528;2023-08-30T12:53:05;16.70;99.90
9849;DHT22;4963;51.444;6.528;2023-08-30T12:55:33;16.70;99.90
9849;DHT22;4963;51.444;6.528;2023-08-30T12:58:00;16.70;99.90
9849;DHT22;4963;51.444;6.528;2023-08-30T13:00:28;16.70;99.90
9849;DHT22;4963;51.444;6.528;2023-08-30T13:02:55;16.70;99.90
9849;DHT22;4963;51.444;6.528;2023-08-30T13:05:23;16.60;99.90
9849;DHT22;4963;51.444;6.528;2023-08-30T13:07:50;16.50;99.90
9849;DHT22;4963;51.444;6.528;2023-08-30T13:10:17;16.50;99.90
9849;DHT22;4963;51.444;6.528;2023-08-30T13:12:44;16.50;99.90
9849;DHT22;4963;51.444;6.528;2023-08-30T13:15:11;16.50;99.90
9849;DHT22;4963;51.444;6.528;2023-08-30T13:17:38;16.50;99.90
9849;DHT22;4963;51.444;6.528;2023-08-30T13:20:06;16.60;99.90
9849;DHT22;4963;51.444;6.528;2023-08-30T13:22:34;16.70;99.90
9849;DHT22;4963;51.444;6.528;2023-08-30T13:25:01;16.80;99.90
9849;DHT22;4963;51.444;6.528;2023-08-30T13:27:29;16.90;99.90
9849;DHT22;4963;51.444;6.528;2023-08-30T13:29:56;16.90;99.90
9849;DHT22;4963;51.444;6.528;2023-08-30T13:32:23;16.90;99.90
9849;DHT22;4963;51.444;6.528;2023-08-30T13:34:50;16.90;99.90
9849;DHT22;4963;51.444;6.528;2023-08-30T13:37:17;16.80;99.90
9849;DHT22;4963;51.444;6.528;2023-08-30T13:39:45;16.80;99.90
9849;DHT22;4963;51.444;6.528;2023-08-30T13:42:12;16.80;99.90
9849;DHT22;4963;51.444;6.528;2023-08-30T13:44:39;16.80;99.90
9849;DHT22;4963;51.444;6.528;2023-08-30T13:47:08;16.70;99.90
9849;DHT22;4963;51.444;6.528;2023-08-30T13:49:35;16.70;99.90
9849;DHT22;4963;51.444;6.528;2023-08-30T13:52:02;16.70;99.90
9849;DHT22;4963;51.444;6.528;2023-08-30T13:54:29;16.70;99.90
9849;DHT22;4963;51.444;6.528;2023-08-30T13:56:58;16.70;99.90
9849;DHT22;4963;51.444;6.528;2023-08-30T13:59:25;16.70;99.90
9849;DHT22;4963;51.444;6.528;2023-08-30T14:01:53;16.70;99.90
9849;DHT22;4963;51.444;6.528;2023-08-30T14:04:23;16.70;99.90
9849;DHT22;4963;51.444;6.528;2023-08-30T14:06:50;16.70;99.90
9849;DHT22;4963;51.444;6.528;2023-08-30T14:09:17;16.70;99.90
9849;DHT22;4963;51.444;6.528;2023-08-30T14:11:44;16.70;99.90
9849;DHT22;4963;51.444;6.528;2023-08-30T14:14:12;16.70;99.90
9849;DHT22;4963;51.444;6.528;2023-08-30T14:16:39;16.70;99.90
9849;DHT22;4963;51.444;6.528;2023-08-30T14:19:05;16.80;99.90
9849;DHT22;4963;51.444;6.528;2023-08-30T14:21:33;16.70;99.90
9849;DHT22;4963;51.444;6.528;2023-08-30T14:24:00;16.70;99.90
9849;DHT22;4963;51.444;6.528;2023-08-30T14:26:27;16.70;99.90
9849;DHT22;4963;51.444;6.528;2023-08-30T14:28:54;16.80;99.90
9849;DHT22;4963;51.444;6.528;2023-08-30T14:31:22;16.80;99.90
9849;DHT22;4963;51.444;6.528;2023-08-30T14:33:49;16.90;99.90
9849;DHT22;4963;51.444;6.528;2023-08-30T14:36:16;16.90;99.90
9849;DHT22;4963;51.444;6.528;2023-08-30T14:38:43;17.00;99.90
9849;DHT22;4963;51.444;6.528;2023-08-30T14:41:10;16.90;99.90
9849;DHT22;4963;51.444;6.528;2023-08-30T14:43:38;16.90;99.90
9849;DHT22;4963;51.444;6.528;2023-08-30T14:46:05;16.90;99.90
9849;DHT22;4963;51.444;6.528;2023-08-30T14:48:34;16.90;99.90
9849;DHT22;4963;51.444;6.528;2023-08-30T14:51:01;16.90;99.90
9849;DHT22;4963;51.444;6.528;2023-08-30T14:53:28;16.90;99.90
9849;DHT22;4963;51.444;6.528;2023-08-30T14:55:55;16.90;99.90
9849;DHT22;4963;51.444;6.528;2023-08-30T14:58:22;16.90;99.90
9849;DHT22;4963;51.444;6.528;2023-08-30T15:00:50;17.00;99.90
9849;DHT22;4963;51.444;6.528;2023-08-30T15:03:17;16.90;99.90
9849;DHT22;4963;51.444;6.528;2023-08-30T15:05:52;16.90;99.90
9849;DHT22;4963;51.444;6.528;2023-08-30T15:08:19;16.90;99.90
9849;DHT22;4963;51.444;6.528;2023-08-30T15:10:46;16.90;99.90
9849;DHT22;4963;51.444;6.528;2023-08-30T15:13:14;16.90;99.90
9849;DHT22;4963;51.444;6.528;2023-08-30T15:15:41;17.00;99.90
9849;DHT22;4963;51.444;6.528;2023-08-30T15:18:08;17.10;99.90
9849;DHT22;4963;51.444;6.528;2023-08-30T15:20:36;17.20;99.90
9849;DHT22;4963;51.444;6.528;2023-08-30T15:23:04;17.20;99.90
9849;DHT22;4963;51.444;6.528;2023-08-30T15:25:31;17.20;99.90
9849;DHT22;4963;51.444;6.528;2023-08-30T15:27:58;17.30;99.90
9849;DHT22;4963;51.444;6.528;2023-08-30T15:30:25;17.30;99.90
9849;DHT22;4963;51.444;6.528;2023-08-30T15:32:52;17.40;99.90
9849;DHT22;4963;51.444;6.528;2023-08-30T15:35:19;17.50;99.90
9849;DHT22;4963;51.444;6.528;2023-08-30T15:37:46;17.50;99.90
9849;DHT22;4963;51.444;6.528;2023-08-30T15:40:15;17.60;99.90
9849;DHT22;4963;51.444;6.528;2023-08-30T15:42:41;17.70;99.90
9849;DHT22;4963;51.444;6.528;2023-08-30T15:45:08;17.70;99.90
9849;DHT22;4963;51.444;6.528;2023-08-30T15:47:36;17.80;99.90
9849;DHT22;4963;51.444;6.528;2023-08-30T15:50:03;17.90;99.90
9849;DHT22;4963;51.444;6.528;2023-08-30T15:52:33;17.90;99.90
9849;DHT22;4963;51.444;6.528;2023-08-30T15:55:00;17.90;99.90
9849;DHT22;4963;51.444;6.528;2023-08-30T15:57:29;17.80;99.90
9849;DHT22;4963;51.444;6.528;2023-08-30T15:59:55;17.70;99.90
9849;DHT22;4963;51.444;6.528;2023-08-30T16:02:22;17.60;99.90
9849;DHT22;4963;51.444;6.528;2023-08-30T16:04:49;17.60;99.90